Time;durP1;ratioP1;P1;durP2;ratioP2;P2;SDS_P1;SDS_P2;PMS_P1;PMS_P2;Temp;Humidity;BMP_temperature;BMP_pressure;BME280_temperature;BME280_humidity;BME280_pressure;Samples;Min_cycle;Max_cycle;Signal;HPM_P1;HPM_P2
2024/02/23 00:00:47;;;;;;;273.70;196.07;;;;;;;12.18;100.00;95692.34;5013340;28;20038;-60
2024/02/23 00:03:12;;;;;;;146.00;39.53;;;;;;;12.09;100.00;95698.84;5013303;28;20556;-59
2024/02/23 00:05:37;;;;;;;143.82;69.38;;;;;;;12.02;100.00;95706.97;5013755;28;20062;-59
2024/02/23 00:08:03;;;;;;;253.00;168.52;;;;;;;12.71;100.00;95712.47;5013775;28;20551;-60
2024/02/23 00:10:28;;;;;;;279.38;186.15;;;;;;;12.14;100.00;95708.19;5010697;28;21793;-60
2024/02/23 00:12:54;;;;;;;238.48;140.25;;;;;;;12.87;100.00;95717.78;5014693;28;20073;-59
2024/02/23 00:15:19;;;;;;;304.40;233.68;;;;;;;11.98;100.00;95729.69;5012529;28;20063;-59
2024/02/23 00:17:44;;;;;;;131.63;53.70;;;;;;;12.84;100.00;95737.03;5014897;28;20561;-60
2024/02/23 00:20:11;;;;;;;143.00;92.40;;;;;;;12.53;100.00;95724.63;5011101;28;20028;-58
2024/02/23 00:22:36;;;;;;;77.70;24.33;;;;;;;12.11;100.00;95728.25;5011649;28;20044;-60
2024/02/23 00:25:02;;;;;;;63.92;19.95;;;;;;;12.41;100.00;95726.91;5014184;28;20049;-60
2024/02/23 00:27:27;;;;;;;476.75;322.30;;;;;;;12.52;100.00;95730.75;5012406;28;21182;-59
2024/02/23 00:29:53;;;;;;;77.07;29.42;;;;;;;11.93;100.00;95734.28;5013656;28;20084;-61
2024/02/23 00:32:18;;;;;;;209.05;108.53;;;;;;;11.96;100.00;95731.53;5014125;28;20488;-59
2024/02/23 00:34:43;;;;;;;206.25;101.05;;;;;;;13.19;100.00;95719.72;5014284;28;20041;-59
2024/02/23 00:37:09;;;;;;;99.93;35.88;;;;;;;12.28;100.00;95742.28;5011215;28;20398;-58
2024/02/23 00:39:34;;;;;;;102.15;56.05;;;;;;;12.32;100.00;95740.38;5013992;28;20077;-60
2024/02/23 00:42:00;;;;;;;190.80;111.78;;;;;;;13.93;100.00;95757.72;5013140;28;20412;-60
2024/02/23 00:44:25;;;;;;;359.23;268.38;;;;;;;12.84;100.00;95775.34;5012345;28;20048;-62
2024/02/23 00:46:50;;;;;;;432.42;318.02;;;;;;;13.35;100.00;95778.06;5014293;28;20301;-59
2024/02/23 00:49:16;;;;;;;129.32;71.05;;;;;;;12.31;100.00;95791.66;5012783;28;20040;-58
2024/02/23 00:51:43;;;;;;;330.63;237.93;;;;;;;12.31;100.00;95782.97;5012760;28;20037;-59
2024/02/23 00:54:08;;;;;;;252.23;182.77;;;;;;;12.67;100.00;95803.06;5014158;28;20468;-59
2024/02/23 00:56:34;;;;;;;233.63;197.43;;;;;;;12.70;100.00;95807.28;5010831;28;20401;-62
2024/02/23 00:59:00;;;;;;;150.45;54.80;;;;;;;13.73;100.00;95811.00;5012578;28;20582;-60
2024/02/23 01:01:26;;;;;;;134.93;55.60;;;;;;;12.85;100.00;95818.75;5011459;28;20057;-60
2024/02/23 01:03:51;;;;;;;148.93;105.47;;;;;;;12.47;100.00;95809.22;5013208;28;20112;-59
2024/02/23 01:06:17;;;;;;;460.98;302.35;;;;;;;13.69;100.00;95812.09;5011237;28;20099;-61
2024/02/23 01:08:43;;;;;;;136.98;53.63;;;;;;;13.95;100.00;95807.28;5014328;28;20044;-62
2024/02/23 01:11:08;;;;;;;188.27;154.65;;;;;;;12.65;100.00;95802.28;5011660;28;20052;-62
2024/02/23 01:13:33;;;;;;;139.93;103.28;;;;;;;13.01;100.00;95809.28;5011904;28;20029;-59
2024/02/23 01:15:59;;;;;;;175.68;91.68;;;;;;;13.36;100.00;95808.47;5012961;28;20442;-62
2024/02/23 01:18:24;;;;;;;252.10;161.90;;;;;;;12.06;100.00;95821.41;5011861;28;20493;-59
2024/02/23 01:20:49;;;;;;;153.70;59.70;;;;;;;12.60;100.00;95828.56;5010118;28;20425;-59
2024/02/23 01:23:15;;;;;;;212.45;164.57;;;;;;;12.48;100.00;95839.56;5014314;28;20115;-60
2024/02/23 01:25:40;;;;;;;187.77;148.30;;;;;;;12.48;100.00;95829.13;5012890;28;20045;-59
2024/02/23 01:28:06;;;;;;;141.15;45.60;;;;;;;12.60;100.00;95827.72;5013729;28;20030;-60
2024/02/23 01:30:31;;;;;;;222.32;169.07;;;;;;;13.41;100.00;95837.78;5010054;28;21344;-59
2024/02/23 01:32:56;;;;;;;142.30;66.28;;;;;;;13.26;100.00;95842.00;5012533;28;20025;-60
2024/02/23 01:35:22;;;;;;;157.90;57.50;;;;;;;12.84;100.00;95837.94;5012329;28;20041;-58
2024/02/23 01:37:47;;;;;;;154.05;100.38;;;;;;;12.24;100.00;95858.84;5012519;28;20553;-60
2024/02/23 01:40:13;;;;;;;138.40;44.95;;;;;;;12.34;100.00;95856.69;5010165;28;20289;-59
2024/02/23 01:42:38;;;;;;;111.32;84.90;;;;;;;12.87;100.00;95869.94;5013250;28;20037;-61
2024/02/23 01:45:04;;;;;;;123.40;78.47;;;;;;;12.37;100.00;95872.16;5013800;28;20029;-60
2024/02/23 01:47:30;;;;;;;327.92;230.55;;;;;;;13.06;100.00;95869.06;5009996;28;20615;-62
2024/02/23 01:49:57;;;;;;;300.90;234.50;;;;;;;12.46;100.00;95875.28;5012635;28;20413;-62
2024/02/23 01:52:23;;;;;;;136.30;77.88;;;;;;;12.30;100.00;95868.16;5010311;28;20045;-60
2024/02/23 01:54:48;;;;;;;189.80;84.13;;;;;;;13.04;100.00;95878.72;5013381;28;20075;-61
2024/02/23 01:57:14;;;;;;;124.32;72.00;;;;;;;12.07;100.00;95882.19;5011501;28;20037;-60
2024/02/23 01:59:40;;;;;;;137.93;74.50;;;;;;;12.15;100.00;95876.63;5012241;28;20030;-62
2024/02/23 02:02:06;;;;;;;90.25;20.80;;;;;;;11.40;100.00;95887.53;5011486;28;20540;-62
2024/02/23 02:04:31;;;;;;;88.88;31.30;;;;;;;10.39;100.00;95895.59;5010866;28;20564;-60
2024/02/23 02:07:01;;;;;;;119.30;85.00;;;;;;;10.51;100.00;95896.09;5011584;28;20040;-59
2024/02/23 02:09:26;;;;;;;139.85;53.92;;;;;;;11.62;100.00;95894.44;5009207;28;20025;-59
2024/02/23 02:11:52;;;;;;;114.10;51.53;;;;;;;11.10;100.00;95911.25;5011251;28;20102;-59
2024/02/23 02:14:17;;;;;;;101.22;38.80;;;;;;;10.68;100.00;95909.31;5010734;28;20087;-59
2024/02/23 02:16:44;;;;;;;466.98;345.25;;;;;;;11.86;100.00;95892.56;5010091;28;20047;-59
2024/02/23 02:19:10;;;;;;;100.50;77.22;;;;;;;11.22;100.00;95895.16;5012480;28;20038;-58
2024/02/23 02:21:36;;;;;;;83.05;37.38;;;;;;;10.66;100.00;95907.69;5009364;28;20397;-58
2024/02/23 02:24:02;;;;;;;174.07;122.32;;;;;;;10.75;100.00;95922.94;5012204;28;20053;-58
2024/02/23 02:26:28;;;;;;;84.75;25.75;;;;;;;10.19;100.00;95937.03;5009934;28;20473;-57
2024/02/23 02:28:53;;;;;;;129.52;51.40;;;;;;;10.15;100.00;95954.47;5010802;28;20040;-58
2024/02/23 02:31:19;;;;;;;153.20;112.68;;;;;;;10.23;100.00;95956.81;5009226;28;20045;-59
2024/02/23 02:33:44;;;;;;;120.93;102.97;;;;;;;10.25;100.00;95955.03;5012647;28;20433;-62
2024/02/23 02:36:09;;;;;;;112.32;62.78;;;;;;;9.96;100.00;95942.13;5010447;28;20037;-60
2024/02/23 02:38:35;;;;;;;86.40;36.42;;;;;;;10.39;100.00;95951.91;5010923;28;20410;-58
2024/02/23 02:41:00;;;;;;;97.97;29.42;;;;;;;10.13;100.00;95953.69;5010931;28;20045;-58
2024/02/23 02:43:26;;;;;;;225.15;181.65;;;;;;;10.44;100.00;95956.97;5010385;28;20026;-59
2024/02/23 02:45:52;;;;;;;270.73;240.38;;;;;;;10.85;100.00;95956.38;5010881;28;20231;-59
2024/02/23 02:48:17;;;;;;;47.97;16.60;;;;;;;9.60;100.00;95966.66;5010250;28;20228;-61
2024/02/23 02:50:43;;;;;;;186.07;117.40;;;;;;;10.81;100.00;95969.50;5009865;28;20485;-58
2024/02/23 02:53:10;;;;;;;154.27;122.18;;;;;;;10.37;100.00;95982.31;5012104;28;20033;-60
2024/02/23 02:55:35;;;;;;;133.70;37.78;;;;;;;10.52;100.00;95981.81;5009955;28;20295;-59
2024/02/23 02:58:01;;;;;;;87.32;35.42;;;;;;;10.00;100.00;95985.28;5011840;28;20323;-61
2024/02/23 03:00:26;;;;;;;110.45;29.13;;;;;;;9.82;100.00;95991.91;5009511;28;20021;-58
2024/02/23 03:02:52;;;;;;;328.15;256.05;;;;;;;10.09;100.00;95985.88;5012603;28;20101;-61
2024/02/23 03:05:17;;;;;;;177.70;146.52;;;;;;;9.82;100.00;95991.91;5014704;28;20101;-60
2024/02/23 03:07:43;;;;;;;107.15;65.03;;;;;;;10.26;100.00;95990.47;5014492;28;20385;-59
2024/02/23 03:10:08;;;;;;;170.27;145.00;;;;;;;9.92;100.00;95986.41;5014189;28;20472;-61
2024/02/23 03:12:34;;;;;;;90.85;28.10;;;;;;;9.61;100.00;95983.91;5014028;28;20401;-60
2024/02/23 03:14:59;;;;;;;72.07;18.00;;;;;;;9.22;100.00;96003.28;5015147;28;20107;-62
2024/02/23 03:17:24;;;;;;;155.20;82.90;;;;;;;9.56;100.00;96006.56;5013423;28;20128;-58
2024/02/23 03:19:50;;;;;;;174.57;127.68;;;;;;;9.05;100.00;96006.34;5014563;28;20021;-59
2024/02/23 03:22:15;;;;;;;64.25;26.52;;;;;;;9.06;100.00;96017.59;5014886;28;20089;-59
2024/02/23 03:24:41;;;;;;;89.78;60.30;;;;;;;9.38;100.00;96018.38;5014088;28;20088;-59
2024/02/23 03:27:06;;;;;;;57.78;17.20;;;;;;;9.68;100.00;96026.09;5013810;28;20037;-59
2024/02/23 03:29:32;;;;;;;85.40;20.00;;;;;;;9.05;100.00;96031.47;5013208;28;20064;-61
2024/02/23 03:31:57;;;;;;;74.38;19.33;;;;;;;8.86;100.00;96026.78;5014203;28;20099;-60
2024/02/23 03:34:23;;;;;;;73.20;38.60;;;;;;;8.76;100.00;96020.16;5014706;28;20029;-62
2024/02/23 03:36:48;;;;;;;108.43;59.65;;;;;;;9.29;100.00;96024.69;5014556;28;20057;-58
2024/02/23 03:39:14;;;;;;;155.70;124.38;;;;;;;9.68;100.00;96030.47;5015499;28;20138;-60
2024/02/23 03:41:39;;;;;;;74.40;13.27;;;;;;;8.86;100.00;96044.91;5012753;28;20429;-58
2024/02/23 03:44:05;;;;;;;117.18;85.18;;;;;;;8.89;100.00;96036.22;5014149;28;20084;-59
2024/02/23 03:46:30;;;;;;;137.52;39.60;;;;;;;9.29;100.00;96042.84;5012076;28;20072;-60
2024/02/23 03:48:56;;;;;;;131.15;100.35;;;;;;;8.88;100.00;96025.00;5014462;28;20027;-59
2024/02/23 03:51:22;;;;;;;59.75;17.10;;;;;;;8.99;100.00;96035.91;5012178;28;20476;-63
2024/02/23 03:53:47;;;;;;;72.65;13.30;;;;;;;8.25;100.00;96035.28;5015030;28;20033;-59
2024/02/23 03:56:12;;;;;;;78.93;46.45;;;;;;;8.44;100.00;96044.28;5014554;28;20041;-60
2024/02/23 03:58:38;;;;;;;73.30;21.25;;;;;;;8.48;100.00;96058.00;5014161;28;20617;-60
2024/02/23 04:01:03;;;;;;;80.55;16.40;;;;;;;8.99;100.00;96056.63;5013554;28;20130;-59
2024/02/23 04:03:29;;;;;;;86.25;14.75;;;;;;;8.60;100.00;96062.03;5014139;28;20521;-61
2024/02/23 04:05:54;;;;;;;72.88;25.17;;;;;;;8.40;100.00;96049.56;5013839;28;20087;-60
2024/02/23 04:08:19;;;;;;;162.45;114.32;;;;;;;8.31;100.00;96035.97;5013979;28;20032;-58
2024/02/23 04:10:45;;;;;;;55.47;20.63;;;;;;;8.44;100.00;96046.00;5011313;28;20342;-59
2024/02/23 04:13:13;;;;;;;36.55;9.82;;;;;;;8.12;100.00;96048.53;5015103;28;20060;-58
2024/02/23 04:15:39;;;;;;;100.47;17.20;;;;;;;8.35;100.00;96052.25;5011798;28;20041;-60
2024/02/23 04:18:05;;;;;;;65.07;24.45;;;;;;;8.17;100.00;96053.59;5013126;28;21047;-61
2024/02/23 04:20:30;;;;;;;101.63;15.07;;;;;;;8.27;100.00;96056.78;5011506;28;20995;-58
2024/02/23 04:22:56;;;;;;;68.03;11.45;;;;;;;8.39;100.00;96064.25;5014412;28;20028;-58
2024/02/23 04:25:21;;;;;;;55.40;25.75;;;;;;;8.21;100.00;96063.81;5013834;28;20626;-58
2024/02/23 04:27:46;;;;;;;73.28;30.63;;;;;;;8.33;100.00;96069.59;5013236;28;20029;-61
2024/02/23 04:30:12;;;;;;;72.15;15.73;;;;;;;8.02;100.00;96062.59;5013266;28;20109;-61
2024/02/23 04:32:39;;;;;;;138.95;95.07;;;;;;;8.07;100.00;96060.75;5013627;28;20087;-59
2024/02/23 04:35:05;;;;;;;63.00;18.42;;;;;;;8.10;100.00;96073.63;5014554;28;20128;-59
2024/02/23 04:37:30;;;;;;;138.57;48.00;;;;;;;8.40;100.00;96081.50;5012680;28;20468;-61
2024/02/23 04:39:56;;;;;;;69.28;29.70;;;;;;;8.07;100.00;96079.72;5013525;28;20515;-59
2024/02/23 04:42:21;;;;;;;113.18;84.78;;;;;;;8.14;100.00;96075.25;5012530;28;20068;-60
2024/02/23 04:44:46;;;;;;;70.18;31.92;;;;;;;8.13;100.00;96075.28;5012294;28;20033;-62
2024/02/23 04:47:12;;;;;;;103.55;64.55;;;;;;;8.23;100.00;96078.50;5013179;28;20042;-60
2024/02/23 04:49:37;;;;;;;124.55;53.78;;;;;;;8.26;100.00;96079.25;5011069;28;20033;-59
2024/02/23 04:52:05;;;;;;;58.78;12.55;;;;;;;8.33;100.00;96087.72;5013041;28;20049;-60
2024/02/23 04:54:30;;;;;;;95.55;22.95;;;;;;;8.94;100.00;96087.03;5014345;28;20033;-61
2024/02/23 04:56:55;;;;;;;81.03;17.10;;;;;;;8.31;100.00;96097.25;5012611;28;20033;-59
2024/02/23 04:59:21;;;;;;;82.80;36.63;;;;;;;8.63;100.00;96103.41;5014248;28;20604;-61
2024/02/23 05:01:47;;;;;;;118.13;81.88;;;;;;;8.79;100.00;96093.50;5011060;28;20048;-58
2024/02/23 05:04:12;;;;;;;87.30;21.13;;;;;;;8.77;100.00;96104.78;5006092;28;20116;-59
2024/02/23 05:06:38;;;;;;;100.68;44.58;;;;;;;8.08;100.00;96109.91;5011383;28;20063;-62
2024/02/23 05:09:03;;;;;;;67.28;22.02;;;;;;;8.19;100.00;96107.06;5012976;28;20397;-59
2024/02/23 05:11:28;;;;;;;86.00;34.90;;;;;;;8.79;100.00;96103.00;5010486;28;20076;-58
2024/02/23 05:13:54;;;;;;;85.85;39.85;;;;;;;8.21;100.00;96092.31;5014042;28;20053;-61
2024/02/23 05:16:19;;;;;;;102.13;30.55;;;;;;;8.90;100.00;96087.19;5013125;28;20468;-60
2024/02/23 05:18:46;;;;;;;120.32;44.90;;;;;;;8.57;100.00;96081.09;5012453;28;20033;-62
2024/02/23 05:21:12;;;;;;;60.53;19.30;;;;;;;8.46;100.00;96089.13;5010259;28;20103;-60
2024/02/23 05:23:37;;;;;;;82.70;15.65;;;;;;;8.60;100.00;96090.53;5012329;28;20041;-62
2024/02/23 05:26:02;;;;;;;127.25;52.92;;;;;;;8.76;100.00;96078.00;5012497;28;20033;-59
2024/02/23 05:28:28;;;;;;;61.28;28.10;;;;;;;9.02;100.00;96075.63;5010918;28;20246;-63
2024/02/23 05:30:54;;;;;;;85.95;33.88;;;;;;;8.79;100.00;96082.25;5011163;28;20425;-60
2024/02/23 05:33:22;;;;;;;71.20;19.17;;;;;;;9.13;100.00;96083.91;5013052;28;20352;-61
2024/02/23 05:35:50;;;;;;;164.15;103.82;;;;;;;8.99;100.00;96077.38;5009509;28;21652;-62
2024/02/23 05:38:16;;;;;;;99.10;30.20;;;;;;;8.81;100.00;96060.63;5012497;28;20029;-60
2024/02/23 05:40:42;;;;;;;142.00;38.72;;;;;;;9.19;100.00;96063.00;5010515;28;20336;-60
2024/02/23 05:43:08;;;;;;;49.22;12.38;;;;;;;8.64;100.00;96086.13;5013139;28;20134;-62
2024/02/23 05:45:33;;;;;;;108.55;14.00;;;;;;;8.02;100.00;96078.13;5009933;28;20591;-60
2024/02/23 05:47:59;;;;;;;103.30;40.08;;;;;;;8.12;100.00;96078.75;5012328;28;20448;-62
2024/02/23 05:50:24;;;;;;;81.03;20.15;;;;;;;7.99;100.00;96084.25;5012157;28;20405;-63
2024/02/23 05:52:49;;;;;;;84.85;19.65;;;;;;;8.05;100.00;96078.91;5010116;28;20092;-62
2024/02/23 05:55:15;;;;;;;59.70;14.82;;;;;;;8.11;100.00;96070.13;5013011;28;20021;-63
2024/02/23 05:57:41;;;;;;;93.63;16.48;;;;;;;7.93;100.00;96074.00;5012036;28;20029;-62
2024/02/23 06:00:07;;;;;;;90.13;22.60;;;;;;;7.86;100.00;96095.72;5012272;28;20463;-59
2024/02/23 06:02:33;;;;;;;59.72;12.43;;;;;;;7.64;100.00;96104.84;5010334;28;20180;-61
2024/02/23 06:04:58;;;;;;;71.47;17.50;;;;;;;7.85;100.00;96117.34;5012484;28;20060;-59
2024/02/23 06:07:28;;;;;;;104.93;26.13;;;;;;;8.20;100.00;96120.84;5011784;28;20037;-58
2024/02/23 06:09:55;;;;;;;79.82;33.58;;;;;;;8.52;100.00;96126.13;5010326;28;20029;-60
2024/02/23 06:12:21;;;;;;;66.50;28.65;;;;;;;8.06;100.00;96132.38;5011658;28;20030;-58
2024/02/23 06:14:46;;;;;;;122.88;16.67;;;;;;;7.46;100.00;96129.38;5011682;28;20046;-58
2024/02/23 06:17:11;;;;;;;70.88;25.88;;;;;;;8.02;100.00;96135.91;5012364;28;20037;-56
2024/02/23 06:19:37;;;;;;;144.93;59.35;;;;;;;7.73;100.00;96134.84;5011219;28;20208;-58
2024/02/23 06:22:02;;;;;;;139.18;97.28;;;;;;;7.61;100.00;96143.72;5011343;28;20486;-60
2024/02/23 06:24:27;;;;;;;59.10;17.10;;;;;;;7.33;100.00;96152.06;5012094;28;20413;-58
2024/02/23 06:26:53;;;;;;;75.45;31.80;;;;;;;7.29;100.00;96160.75;5009923;28;20144;-57
2024/02/23 06:29:18;;;;;;;56.15;13.20;;;;;;;7.04;100.00;96174.16;5012161;28;20321;-59
2024/02/23 06:31:48;;;;;;;97.00;14.57;;;;;;;7.08;100.00;96190.44;5010720;28;20500;-59
2024/02/23 06:34:14;;;;;;;82.68;32.05;;;;;;;7.09;100.00;96193.00;5012511;28;20025;-58
2024/02/23 06:36:39;;;;;;;97.97;27.55;;;;;;;6.83;100.00;96198.66;5009247;28;20046;-58
2024/02/23 06:39:05;;;;;;;53.83;9.50;;;;;;;6.58;100.00;96205.09;5013583;28;20116;-59
2024/02/23 06:41:31;;;;;;;71.68;9.65;;;;;;;6.63;100.00;96198.13;5014169;28;20087;-59
2024/02/23 06:43:56;;;;;;;56.15;10.02;;;;;;;6.72;100.00;96180.75;5014741;28;20474;-57
2024/02/23 06:46:22;;;;;;;60.90;23.85;;;;;;;6.64;100.00;96166.22;5016713;28;20033;-59
2024/02/23 06:48:47;;;;;;;105.82;12.63;;;;;;;6.42;100.00;96182.97;5013514;28;20096;-59
2024/02/23 06:51:14;;;;;;;41.60;9.02;;;;;;;6.42;100.00;96180.38;5014636;28;20045;-60
2024/02/23 06:53:39;;;;;;;68.22;13.82;;;;;;;6.47;100.00;96189.78;5015902;28;20056;-57
2024/02/23 06:56:05;;;;;;;86.57;19.55;;;;;;;6.43;100.00;96197.56;5014951;28;20569;-59
2024/02/23 06:58:30;;;;;;;68.00;16.20;;;;;;;6.44;100.00;96197.56;5015967;28;20037;-58
2024/02/23 07:00:55;;;;;;;75.35;27.35;;;;;;;6.66;100.00;96204.09;5012715;28;20033;-61
2024/02/23 07:03:21;;;;;;;86.38;21.90;;;;;;;6.59;100.00;96208.50;5015881;28;20033;-57
2024/02/23 07:05:47;;;;;;;85.88;17.08;;;;;;;6.64;100.00;96207.56;5014203;28;20079;-60
2024/02/23 07:08:12;;;;;;;79.65;48.72;;;;;;;7.00;100.00;96208.69;5015576;28;20052;-59
2024/02/23 07:10:37;;;;;;;77.00;20.75;;;;;;;7.06;100.00;96213.75;5012153;28;20112;-60
2024/02/23 07:13:03;;;;;;;91.90;32.50;;;;;;;7.41;100.00;96216.56;5015789;28;20028;-57
2024/02/23 07:15:29;;;;;;;60.63;26.25;;;;;;;7.08;100.00;96201.66;5014830;28;20056;-61
2024/02/23 07:17:55;;;;;;;78.10;23.13;;;;;;;7.26;100.00;96200.47;5013276;28;21581;-61
2024/02/23 07:20:20;;;;;;;58.88;22.63;;;;;;;7.38;100.00;96196.78;5014537;28;20370;-57
2024/02/23 07:22:46;;;;;;;89.93;20.35;;;;;;;7.46;100.00;96198.38;5014044;28;20505;-57
2024/02/23 07:25:16;;;;;;;75.60;21.25;;;;;;;7.71;100.00;96192.72;5014893;28;20068;-59
2024/02/23 07:27:41;;;;;;;58.10;16.95;;;;;;;7.47;100.00;96187.13;5014320;28;20323;-57
2024/02/23 07:30:07;;;;;;;62.05;23.77;;;;;;;7.93;100.00;96186.19;5015434;28;20041;-57
2024/02/23 07:32:33;;;;;;;63.28;24.90;;;;;;;8.10;100.00;96184.97;5015389;28;20033;-60
2024/02/23 07:34:58;;;;;;;61.72;20.02;;;;;;;8.16;100.00;96184.81;5014634;28;20175;-57
2024/02/23 07:37:26;;;;;;;67.38;37.58;;;;;;;7.82;100.00;96183.81;5014158;28;20037;-58
2024/02/23 07:39:51;;;;;;;83.85;19.20;;;;;;;7.80;100.00;96189.91;5013955;28;20148;-61
2024/02/23 07:42:18;;;;;;;48.72;14.45;;;;;;;7.75;100.00;96194.31;5015442;28;20025;-58
2024/02/23 07:44:44;;;;;;;71.70;15.77;;;;;;;7.72;100.00;96192.66;5014305;28;20091;-58
2024/02/23 07:47:09;;;;;;;57.60;30.10;;;;;;;7.67;100.00;96195.34;5013785;28;20564;-60
2024/02/23 07:49:35;;;;;;;97.03;53.72;;;;;;;7.51;100.00;96197.41;5014850;28;20041;-58
2024/02/23 07:52:00;;;;;;;80.07;17.80;;;;;;;7.55;100.00;96206.81;5012642;28;20065;-58
2024/02/23 07:54:25;;;;;;;52.05;19.15;;;;;;;7.36;100.00;96205.44;5016000;28;20117;-58
2024/02/23 07:56:51;;;;;;;82.40;15.77;;;;;;;7.64;100.00;96217.81;5012874;28;20045;-58
2024/02/23 07:59:16;;;;;;;65.05;28.45;;;;;;;7.51;100.00;96230.16;5015112;28;20439;-58
2024/02/23 08:01:42;;;;;;;137.35;110.85;;;;;;;7.28;100.00;96229.72;5012335;28;20576;-59
2024/02/23 08:04:07;;;;;;;79.88;58.22;;;;;;;7.49;100.00;96231.91;5014470;28;20036;-61
2024/02/23 08:06:32;;;;;;;61.00;18.17;;;;;;;7.54;100.00;96219.78;5014098;28;20037;-59
2024/02/23 08:08:58;;;;;;;59.80;15.05;;;;;;;7.52;100.00;96206.00;5011089;28;20029;-60
2024/02/23 08:11:23;;;;;;;69.70;46.92;;;;;;;7.94;100.00;96187.88;5014021;28;20049;-58
2024/02/23 08:13:48;;;;;;;83.18;15.57;;;;;;;7.90;100.00;96170.72;5013055;28;20410;-57
2024/02/23 08:16:17;;;;;;;51.10;16.20;;;;;;;8.10;100.00;96179.78;5014057;28;20060;-59
2024/02/23 08:18:42;;;;;;;52.22;10.77;;;;;;;7.86;100.00;96192.34;5011935;28;20440;-57
2024/02/23 08:21:08;;;;;;;65.90;14.18;;;;;;;7.95;100.00;96196.50;5012741;28;20521;-58
2024/02/23 08:23:33;;;;;;;129.93;115.45;;;;;;;8.13;100.00;96197.81;5014767;28;20100;-57
2024/02/23 08:26:00;;;;;;;53.67;13.00;;;;;;;8.56;100.00;96208.09;5011787;28;20046;-57
2024/02/23 08:28:25;;;;;;;121.95;97.47;;;;;;;8.26;100.00;96207.91;5013970;28;20017;-58
2024/02/23 08:30:51;;;;;;;87.75;50.88;;;;;;;8.14;100.00;96220.25;5012054;28;20495;-58
2024/02/23 08:33:16;;;;;;;42.40;17.25;;;;;;;8.15;100.00;96224.53;5015335;28;20112;-61
2024/02/23 08:35:42;;;;;;;143.27;112.28;;;;;;;8.46;100.00;96223.84;5011705;28;20072;-59
2024/02/23 08:38:08;;;;;;;39.70;12.32;;;;;;;8.49;100.00;96217.72;5014400;28;20034;-60
2024/02/23 08:40:34;;;;;;;58.40;27.83;;;;;;;8.44;100.00;96214.41;5013644;28;20064;-57
2024/02/23 08:43:00;;;;;;;85.35;28.02;;;;;;;8.49;100.00;96219.47;5011973;28;20116;-59
2024/02/23 08:45:25;;;;;;;45.40;10.15;;;;;;;8.62;100.00;96227.84;5013128;28;20034;-58
2024/02/23 08:47:50;;;;;;;81.00;18.95;;;;;;;9.75;100.00;96230.09;5011605;28;20029;-59
2024/02/23 08:50:16;;;;;;;51.47;13.88;;;;;;;10.01;100.00;96227.63;5010792;28;20333;-59
2024/02/23 08:52:41;;;;;;;44.47;8.95;;;;;;;9.31;100.00;96237.38;5013436;28;20128;-57
2024/02/23 08:55:07;;;;;;;31.70;7.70;;;;;;;9.32;100.00;96239.91;5012336;28;20452;-61
2024/02/23 08:57:32;;;;;;;117.10;90.28;;;;;;;8.89;100.00;96243.59;5013159;28;20044;-58
2024/02/23 08:59:58;;;;;;;91.30;27.98;;;;;;;9.34;100.00;96238.13;5012068;28;20037;-58
2024/02/23 09:02:26;;;;;;;51.60;21.35;;;;;;;9.08;100.00;96243.97;5012503;28;20046;-59
2024/02/23 09:04:52;;;;;;;70.25;10.15;;;;;;;9.10;100.00;96242.22;5012255;28;20848;-57
2024/02/23 09:07:19;;;;;;;49.13;8.80;;;;;;;9.40;100.00;96244.91;5013269;28;20079;-59
2024/02/23 09:09:45;;;;;;;73.70;12.98;;;;;;;9.24;100.00;96242.69;5011254;28;20424;-59
2024/02/23 09:12:11;;;;;;;51.10;15.85;;;;;;;9.09;100.00;96245.69;5012466;28;20497;-60
2024/02/23 09:14:38;;;;;;;41.47;10.25;;;;;;;9.30;100.00;96244.28;5014681;28;20033;-59
2024/02/23 09:17:04;;;;;;;39.05;7.85;;;;;;;9.35;100.00;96241.56;5010807;28;20038;-58
2024/02/23 09:19:30;;;;;;;37.75;9.70;;;;;;;9.22;100.00;96228.94;5012936;28;20218;-57
2024/02/23 09:21:55;;;;;;;98.07;36.90;;;;;;;9.10;100.00;96237.03;5010619;28;20053;-59
2024/02/23 09:24:20;;;;;;;48.90;9.25;;;;;;;8.87;100.00;96256.59;5013903;28;20017;-58
2024/02/23 09:26:47;;;;;;;51.88;9.10;;;;;;;8.80;100.00;96270.59;5011107;28;20053;-59
2024/02/23 09:29:12;;;;;;;39.25;6.32;;;;;;;8.80;100.00;96276.63;5013465;28;20127;-57
2024/02/23 09:31:38;;;;;;;44.58;8.70;;;;;;;9.22;100.00;96269.56;5011845;28;20076;-57
2024/02/23 09:34:03;;;;;;;50.00;20.33;;;;;;;8.84;100.00;96259.28;5012131;28;20497;-58
2024/02/23 09:36:30;;;;;;;42.55;7.07;;;;;;;9.09;100.00;96261.25;5012881;28;20045;-58
2024/02/23 09:38:55;;;;;;;92.68;12.32;;;;;;;8.82;100.00;96253.25;5011412;28;20040;-59
2024/02/23 09:41:22;;;;;;;52.60;13.52;;;;;;;8.63;100.00;96248.53;5012332;28;20025;-57
2024/02/23 09:43:49;;;;;;;74.90;46.00;;;;;;;8.56;100.00;96249.56;5011305;28;20034;-60
2024/02/23 09:46:15;;;;;;;161.43;143.07;;;;;;;8.25;100.00;96263.19;5011523;28;20049;-59
2024/02/23 09:48:43;;;;;;;116.50;95.63;;;;;;;8.62;100.00;96266.69;5013200;28;20044;-58
2024/02/23 09:51:09;;;;;;;46.63;31.02;;;;;;;8.87;100.00;96268.72;5009759;28;20049;-59
2024/02/23 09:53:37;;;;;;;47.17;10.65;;;;;;;8.97;100.00;96275.38;5011784;28;20438;-60
2024/02/23 09:56:03;;;;;;;81.43;28.05;;;;;;;9.15;100.00;96281.84;5010224;28;20497;-61
2024/02/23 09:58:31;;;;;;;45.90;7.80;;;;;;;8.96;100.00;96290.09;5012265;28;20048;-59
2024/02/23 10:01:02;;;;;;;121.22;60.63;;;;;;;8.14;100.00;96294.47;5009356;28;20573;-60
2024/02/23 10:03:31;;;;;;;50.47;9.07;;;;;;;7.25;100.00;96306.50;5013961;28;20033;-59
2024/02/23 10:05:57;;;;;;;104.97;13.05;;;;;;;7.01;100.00;96311.19;5010722;28;20034;-60
2024/02/23 10:08:22;;;;;;;44.80;17.05;;;;;;;7.03;100.00;96301.69;5013355;28;20030;-58
2024/02/23 10:10:50;;;;;;;58.78;13.48;;;;;;;6.86;100.00;96302.81;5011112;28;20045;-58
2024/02/23 10:13:23;;;;;;;71.30;14.63;;;;;;;6.90;100.00;96296.72;5012105;28;20549;-58
2024/02/23 10:15:49;;;;;;;66.93;14.13;;;;;;;7.00;100.00;96284.50;5011065;28;20405;-59
2024/02/23 10:18:15;;;;;;;57.22;10.27;;;;;;;6.89;100.00;96294.16;5013053;28;20497;-58
2024/02/23 10:20:40;;;;;;;38.88;7.45;;;;;;;7.05;100.00;96296.50;5012237;28;20124;-58
2024/02/23 10:23:07;;;;;;;100.00;12.05;;;;;;;7.04;100.00;96300.81;5011665;28;20029;-58
2024/02/23 10:25:36;;;;;;;84.35;12.68;;;;;;;7.13;100.00;96297.22;5011802;28;20060;-57
2024/02/23 10:28:03;;;;;;;98.15;15.55;;;;;;;7.02;100.00;96293.06;5011812;28;20131;-59
2024/02/23 10:30:28;;;;;;;49.83;6.00;;;;;;;7.22;100.00;96293.63;5012053;28;20045;-57
2024/02/23 10:32:56;;;;;;;83.38;10.25;;;;;;;7.89;100.00;96297.56;5011557;28;20021;-56
2024/02/23 10:35:22;;;;;;;43.10;9.98;;;;;;;8.14;100.00;96291.91;5013050;28;20029;-58
2024/02/23 10:37:53;;;;;;;44.75;15.07;;;;;;;8.29;100.00;96286.41;5013012;28;20285;-60
2024/02/23 10:40:19;;;;;;;53.53;9.18;;;;;;;8.50;100.00;96301.50;5012857;28;20108;-58
2024/02/23 10:42:53;;;;;;;35.85;7.13;;;;;;;8.78;100.00;96301.75;5013766;28;20017;-57
2024/02/23 10:45:21;;;;;;;51.78;8.07;;;;;;;8.83;100.00;96296.44;5013725;28;20049;-60
2024/02/23 10:47:48;;;;;;;38.65;6.20;;;;;;;8.82;100.00;96289.56;5013869;28;20519;-57
2024/02/23 10:50:14;;;;;;;40.10;6.43;;;;;;;9.02;100.00;96290.84;5013057;28;20072;-57
2024/02/23 10:52:43;;;;;;;52.38;6.80;;;;;;;8.86;100.00;96288.59;5014034;28;20381;-59
2024/02/23 10:55:09;;;;;;;32.88;7.20;;;;;;;8.57;100.00;96296.16;5013457;28;20029;-58
2024/02/23 10:57:35;;;;;;;38.15;6.90;;;;;;;9.14;100.00;96300.03;5012936;28;20486;-58
2024/02/23 11:00:00;;;;;;;59.63;12.32;;;;;;;9.02;100.00;96289.06;5012463;28;20727;-59
2024/02/23 11:02:30;;;;;;;39.88;6.85;;;;;;;8.79;100.00;96279.25;5013912;28;20133;-57
2024/02/23 11:04:57;;;;;;;87.97;41.35;;;;;;;8.88;100.00;96283.38;5012681;28;20116;-60